sensor_id;sensor_type;location;lat;lon;timestamp;P1;durP1;ratioP1;P2;durP2;ratioP2
34064;SDS011;20339;49.754;20.158;2022-07-23T00:00:45;9.10;;;7.80;;
34064;SDS011;20339;49.754;20.158;2022-07-23T00:03:16;10.60;;;7.50;;
34064;SDS011;20339;49.754;20.158;2022-07-23T00:05:47;9.10;;;7.60;;
34064;SDS011;20339;49.754;20.158;2022-07-23T00:08:19;10.70;;;7.50;;
34064;SDS011;20339;49.754;20.158;2022-07-23T00:10:50;11.30;;;7.40;;
34064;SDS011;20339;49.754;20.158;2022-07-23T00:13:21;9.60;;;7.50;;
34064;SDS011;20339;49.754;20.158;2022-07-23T00:15:54;9.30;;;7.10;;
34064;SDS011;20339;49.754;20.158;2022-07-23T00:18:26;10.80;;;7.70;;
34064;SDS011;20339;49.754;20.158;2022-07-23T00:20:58;10.70;;;7.10;;
34064;SDS011;20339;49.754;20.158;2022-07-23T00:23:39;9.00;;;7.30;;
34064;SDS011;20339;49.754;20.158;2022-07-23T00:26:11;9.80;;;6.90;;
34064;SDS011;20339;49.754;20.158;2022-07-23T00:28:44;11.60;;;7.10;;
34064;SDS011;20339;49.754;20.158;2022-07-23T00:31:15;8.90;;;7.10;;
34064;SDS011;20339;49.754;20.158;2022-07-23T00:33:47;10.50;;;7.30;;
34064;SDS011;20339;49.754;20.158;2022-07-23T00:36:20;10.10;;;7.30;;
34064;SDS011;20339;49.754;20.158;2022-07-23T00:39:00;10.40;;;7.00;;
34064;SDS011;20339;49.754;20.158;2022-07-23T00:41:35;9.90;;;7.70;;
34064;SDS011;20339;49.754;20.158;2022-07-23T00:44:21;8.20;;;7.20;;
34064;SDS011;20339;49.754;20.158;2022-07-23T00:46:57;9.30;;;7.20;;
34064;SDS011;20339;49.754;20.158;2022-07-23T00:49:33;8.10;;;7.10;;
34064;SDS011;20339;49.754;20.158;2022-07-23T00:52:08;8.20;;;6.60;;
34064;SDS011;20339;49.754;20.158;2022-07-23T00:54:39;7.50;;;6.60;;
34064;SDS011;20339;49.754;20.158;2022-07-23T00:57:16;10.20;;;7.20;;
34064;SDS011;20339;49.754;20.158;2022-07-23T00:59:47;9.50;;;6.90;;
34064;SDS011;20339;49.754;20.158;2022-07-23T01:02:20;9.00;;;6.80;;
34064;SDS011;20339;49.754;20.158;2022-07-23T01:04:52;9.10;;;7.60;;
34064;SDS011;20339;49.754;20.158;2022-07-23T01:07:24;8.40;;;6.30;;
34064;SDS011;20339;49.754;20.158;2022-07-23T01:09:56;8.80;;;6.50;;
34064;SDS011;20339;49.754;20.158;2022-07-23T01:12:30;10.00;;;7.90;;
34064;SDS011;20339;49.754;20.158;2022-07-23T01:15:08;10.00;;;7.10;;
34064;SDS011;20339;49.754;20.158;2022-07-23T01:17:40;10.70;;;7.00;;
34064;SDS011;20339;49.754;20.158;2022-07-23T01:20:12;8.70;;;6.80;;
34064;SDS011;20339;49.754;20.158;2022-07-23T01:22:44;10.30;;;7.10;;
34064;SDS011;20339;49.754;20.158;2022-07-23T01:25:16;12.50;;;7.40;;
34064;SDS011;20339;49.754;20.158;2022-07-23T01:27:51;10.50;;;7.30;;
34064;SDS011;20339;49.754;20.158;2022-07-23T01:30:22;11.20;;;7.40;;
34064;SDS011;20339;49.754;20.158;2022-07-23T01:32:55;9.80;;;7.20;;
34064;SDS011;20339;49.754;20.158;2022-07-23T01:35:31;10.80;;;7.50;;
34064;SDS011;20339;49.754;20.158;2022-07-23T01:38:06;9.60;;;7.50;;
34064;SDS011;20339;49.754;20.158;2022-07-23T01:40:39;9.50;;;7.00;;
34064;SDS011;20339;49.754;20.158;2022-07-23T01:43:10;10.60;;;7.40;;
34064;SDS011;20339;49.754;20.158;2022-07-23T01:45:45;10.70;;;7.70;;
34064;SDS011;20339;49.754;20.158;2022-07-23T01:48:16;9.30;;;7.40;;
34064;SDS011;20339;49.754;20.158;2022-07-23T01:50:50;10.60;;;8.20;;
34064;SDS011;20339;49.754;20.158;2022-07-23T01:53:21;9.80;;;7.40;;
34064;SDS011;20339;49.754;20.158;2022-07-23T01:55:54;12.30;;;7.60;;
34064;SDS011;20339;49.754;20.158;2022-07-23T01:58:25;12.70;;;8.00;;
34064;SDS011;20339;49.754;20.158;2022-07-23T02:01:01;10.70;;;7.20;;
34064;SDS011;20339;49.754;20.158;2022-07-23T02:03:34;10.90;;;7.80;;
34064;SDS011;20339;49.754;20.158;2022-07-23T02:06:13;10.60;;;8.10;;
34064;SDS011;20339;49.754;20.158;2022-07-23T02:08:49;8.30;;;6.70;;
34064;SDS011;20339;49.754;20.158;2022-07-23T02:11:21;9.10;;;7.70;;
34064;SDS011;20339;49.754;20.158;2022-07-23T02:13:57;11.80;;;8.20;;
34064;SDS011;20339;49.754;20.158;2022-07-23T02:16:33;9.70;;;8.30;;
34064;SDS011;20339;49.754;20.158;2022-07-23T02:22:01;11.40;;;7.80;;
34064;SDS011;20339;49.754;20.158;2022-07-23T02:24:34;11.80;;;8.80;;
34064;SDS011;20339;49.754;20.158;2022-07-23T02:27:11;10.20;;;8.40;;
34064;SDS011;20339;49.754;20.158;2022-07-23T02:29:49;11.50;;;8.10;;
34064;SDS011;20339;49.754;20.158;2022-07-23T02:32:28;11.20;;;8.60;;
34064;SDS011;20339;49.754;20.158;2022-07-23T02:35:08;9.30;;;8.00;;
34064;SDS011;20339;49.754;20.158;2022-07-23T02:37:44;10.50;;;7.90;;
34064;SDS011;20339;49.754;20.158;2022-07-23T02:40:16;9.10;;;7.40;;
34064;SDS011;20339;49.754;20.158;2022-07-23T02:42:51;9.30;;;8.20;;
34064;SDS011;20339;49.754;20.158;2022-07-23T02:45:23;10.20;;;8.10;;
34064;SDS011;20339;49.754;20.158;2022-07-23T02:48:00;9.00;;;7.60;;
34064;SDS011;20339;49.754;20.158;2022-07-23T02:50:32;11.50;;;8.10;;
34064;SDS011;20339;49.754;20.158;2022-07-23T02:53:08;11.50;;;7.90;;
34064;SDS011;20339;49.754;20.158;2022-07-23T02:55:39;8.50;;;7.50;;
34064;SDS011;20339;49.754;20.158;2022-07-23T02:58:14;10.90;;;7.60;;
34064;SDS011;20339;49.754;20.158;2022-07-23T03:00:46;10.70;;;7.90;;
34064;SDS011;20339;49.754;20.158;2022-07-23T03:03:26;8.80;;;7.40;;
34064;SDS011;20339;49.754;20.158;2022-07-23T03:06:02;8.60;;;7.50;;
34064;SDS011;20339;49.754;20.158;2022-07-23T03:08:43;8.80;;;7.50;;
34064;SDS011;20339;49.754;20.158;2022-07-23T03:11:19;9.10;;;7.40;;
34064;SDS011;20339;49.754;20.158;2022-07-23T03:13:52;10.00;;;7.50;;
34064;SDS011;20339;49.754;20.158;2022-07-23T03:16:24;9.70;;;7.20;;
34064;SDS011;20339;49.754;20.158;2022-07-23T03:18:58;10.50;;;7.40;;
34064;SDS011;20339;49.754;20.158;2022-07-23T03:21:29;8.20;;;7.20;;
34064;SDS011;20339;49.754;20.158;2022-07-23T03:24:09;8.80;;;7.40;;
34064;SDS011;20339;49.754;20.158;2022-07-23T03:26:48;8.90;;;7.20;;
34064;SDS011;20339;49.754;20.158;2022-07-23T03:29:19;10.50;;;7.70;;
34064;SDS011;20339;49.754;20.158;2022-07-23T03:31:55;8.80;;;7.50;;
34064;SDS011;20339;49.754;20.158;2022-07-23T03:34:31;8.60;;;7.40;;
34064;SDS011;20339;49.754;20.158;2022-07-23T03:37:05;10.00;;;7.50;;
34064;SDS011;20339;49.754;20.158;2022-07-23T03:39:38;9.50;;;7.40;;
34064;SDS011;20339;49.754;20.158;2022-07-23T03:42:09;8.60;;;6.80;;
34064;SDS011;20339;49.754;20.158;2022-07-23T03:44:40;9.70;;;7.40;;
34064;SDS011;20339;49.754;20.158;2022-07-23T03:47:12;11.70;;;7.30;;
34064;SDS011;20339;49.754;20.158;2022-07-23T03:49:44;9.00;;;7.50;;
34064;SDS011;20339;49.754;20.158;2022-07-23T03:52:15;7.40;;;6.60;;
34064;SDS011;20339;49.754;20.158;2022-07-23T03:54:46;10.30;;;7.70;;
34064;SDS011;20339;49.754;20.158;2022-07-23T03:57:18;10.00;;;7.80;;
34064;SDS011;20339;49.754;20.158;2022-07-23T03:59:49;9.50;;;7.50;;
34064;SDS011;20339;49.754;20.158;2022-07-23T04:02:20;8.30;;;7.40;;
34064;SDS011;20339;49.754;20.158;2022-07-23T04:04:51;9.00;;;7.10;;
34064;SDS011;20339;49.754;20.158;2022-07-23T04:07:22;8.60;;;7.70;;
34064;SDS011;20339;49.754;20.158;2022-07-23T04:09:54;10.10;;;7.60;;
34064;SDS011;20339;49.754;20.158;2022-07-23T04:12:25;11.20;;;8.00;;
34064;SDS011;20339;49.754;20.158;2022-07-23T04:14:56;9.80;;;7.70;;
34064;SDS011;20339;49.754;20.158;2022-07-23T04:17:27;8.90;;;7.90;;
34064;SDS011;20339;49.754;20.158;2022-07-23T04:19:58;9.40;;;7.80;;
34064;SDS011;20339;49.754;20.158;2022-07-23T04:22:30;10.80;;;8.10;;
34064;SDS011;20339;49.754;20.158;2022-07-23T04:25:01;9.80;;;7.50;;
34064;SDS011;20339;49.754;20.158;2022-07-23T04:27:34;10.00;;;8.10;;
34064;SDS011;20339;49.754;20.158;2022-07-23T04:30:08;15.30;;;13.80;;
34064;SDS011;20339;49.754;20.158;2022-07-23T04:32:40;10.10;;;8.50;;
34064;SDS011;20339;49.754;20.158;2022-07-23T04:35:11;10.20;;;8.60;;
34064;SDS011;20339;49.754;20.158;2022-07-23T04:37:43;13.20;;;10.50;;
34064;SDS011;20339;49.754;20.158;2022-07-23T04:40:14;9.30;;;7.50;;
34064;SDS011;20339;49.754;20.158;2022-07-23T04:42:45;9.60;;;8.00;;
34064;SDS011;20339;49.754;20.158;2022-07-23T04:45:17;9.30;;;8.30;;
34064;SDS011;20339;49.754;20.158;2022-07-23T04:47:49;9.80;;;8.20;;
34064;SDS011;20339;49.754;20.158;2022-07-23T04:50:20;9.00;;;8.10;;
34064;SDS011;20339;49.754;20.158;2022-07-23T04:52:52;10.00;;;7.40;;
34064;SDS011;20339;49.754;20.158;2022-07-23T04:55:23;9.70;;;7.90;;
34064;SDS011;20339;49.754;20.158;2022-07-23T04:57:57;8.90;;;7.60;;
34064;SDS011;20339;49.754;20.158;2022-07-23T05:00:28;9.10;;;7.00;;
34064;SDS011;20339;49.754;20.158;2022-07-23T05:03:02;8.80;;;7.00;;
34064;SDS011;20339;49.754;20.158;2022-07-23T05:05:37;7.90;;;7.10;;
34064;SDS011;20339;49.754;20.158;2022-07-23T05:08:08;8.70;;;7.00;;
34064;SDS011;20339;49.754;20.158;2022-07-23T05:10:40;10.90;;;7.20;;
34064;SDS011;20339;49.754;20.158;2022-07-23T05:13:11;8.70;;;6.70;;
34064;SDS011;20339;49.754;20.158;2022-07-23T05:15:45;8.50;;;6.60;;
34064;SDS011;20339;49.754;20.158;2022-07-23T05:18:17;7.20;;;5.90;;
34064;SDS011;20339;49.754;20.158;2022-07-23T05:20:48;7.20;;;6.30;;
34064;SDS011;20339;49.754;20.158;2022-07-23T05:23:20;9.50;;;6.40;;
34064;SDS011;20339;49.754;20.158;2022-07-23T05:25:51;7.90;;;5.90;;
34064;SDS011;20339;49.754;20.158;2022-07-23T05:28:23;6.40;;;5.70;;
34064;SDS011;20339;49.754;20.158;2022-07-23T05:30:54;8.00;;;6.50;;
34064;SDS011;20339;49.754;20.158;2022-07-23T05:33:26;8.00;;;6.10;;
34064;SDS011;20339;49.754;20.158;2022-07-23T05:36:01;7.00;;;6.30;;
34064;SDS011;20339;49.754;20.158;2022-07-23T05:38:34;6.80;;;5.60;;
34064;SDS011;20339;49.754;20.158;2022-07-23T05:41:06;6.80;;;5.90;;
34064;SDS011;20339;49.754;20.158;2022-07-23T05:43:38;5.90;;;5.30;;
34064;SDS011;20339;49.754;20.158;2022-07-23T05:46:09;9.00;;;6.30;;
34064;SDS011;20339;49.754;20.158;2022-07-23T05:48:40;6.60;;;5.80;;
34064;SDS011;20339;49.754;20.158;2022-07-23T05:51:14;10.00;;;6.30;;
34064;SDS011;20339;49.754;20.158;2022-07-23T05:53:48;6.50;;;5.90;;
34064;SDS011;20339;49.754;20.158;2022-07-23T05:56:23;6.70;;;5.50;;
34064;SDS011;20339;49.754;20.158;2022-07-23T05:58:54;7.60;;;5.40;;
34064;SDS011;20339;49.754;20.158;2022-07-23T06:01:26;7.00;;;5.60;;
34064;SDS011;20339;49.754;20.158;2022-07-23T06:03:57;6.80;;;5.50;;
34064;SDS011;20339;49.754;20.158;2022-07-23T06:06:32;6.40;;;5.60;;
34064;SDS011;20339;49.754;20.158;2022-07-23T06:09:04;6.50;;;5.40;;
34064;SDS011;20339;49.754;20.158;2022-07-23T06:11:35;7.60;;;5.40;;
34064;SDS011;20339;49.754;20.158;2022-07-23T06:14:06;8.20;;;5.70;;
34064;SDS011;20339;49.754;20.158;2022-07-23T06:16:38;6.20;;;4.60;;
34064;SDS011;20339;49.754;20.158;2022-07-23T06:19:10;6.00;;;5.20;;
34064;SDS011;20339;49.754;20.158;2022-07-23T06:21:41;6.20;;;5.20;;
34064;SDS011;20339;49.754;20.158;2022-07-23T06:24:13;5.70;;;5.20;;
34064;SDS011;20339;49.754;20.158;2022-07-23T06:26:44;6.00;;;4.60;;
34064;SDS011;20339;49.754;20.158;2022-07-23T06:29:16;6.40;;;5.10;;
34064;SDS011;20339;49.754;20.158;2022-07-23T06:31:47;6.50;;;4.90;;
34064;SDS011;20339;49.754;20.158;2022-07-23T06:34:18;4.80;;;4.30;;
34064;SDS011;20339;49.754;20.158;2022-07-23T06:36:50;5.60;;;4.70;;
34064;SDS011;20339;49.754;20.158;2022-07-23T06:39:21;5.50;;;4.80;;
34064;SDS011;20339;49.754;20.158;2022-07-23T06:41:52;6.00;;;4.60;;
34064;SDS011;20339;49.754;20.158;2022-07-23T06:44:24;8.10;;;4.80;;
34064;SDS011;20339;49.754;20.158;2022-07-23T06:46:55;5.30;;;4.80;;
34064;SDS011;20339;49.754;20.158;2022-07-23T06:49:27;7.30;;;4.70;;
34064;SDS011;20339;49.754;20.158;2022-07-23T06:51:58;6.30;;;4.50;;
34064;SDS011;20339;49.754;20.158;2022-07-23T06:54:31;8.00;;;4.90;;
34064;SDS011;20339;49.754;20.158;2022-07-23T06:57:03;5.20;;;4.50;;
34064;SDS011;20339;49.754;20.158;2022-07-23T06:59:34;5.60;;;4.90;;
34064;SDS011;20339;49.754;20.158;2022-07-23T07:02:10;6.50;;;4.50;;
34064;SDS011;20339;49.754;20.158;2022-07-23T07:04:42;5.40;;;4.10;;
34064;SDS011;20339;49.754;20.158;2022-07-23T07:07:13;6.20;;;4.70;;
34064;SDS011;20339;49.754;20.158;2022-07-23T07:09:44;6.90;;;4.50;;
34064;SDS011;20339;49.754;20.158;2022-07-23T07:12:15;6.50;;;4.40;;
34064;SDS011;20339;49.754;20.158;2022-07-23T07:14:47;5.70;;;4.30;;
34064;SDS011;20339;49.754;20.158;2022-07-23T07:17:18;5.10;;;4.60;;
34064;SDS011;20339;49.754;20.158;2022-07-23T07:19:49;4.80;;;4.30;;
34064;SDS011;20339;49.754;20.158;2022-07-23T07:22:23;5.40;;;4.10;;
34064;SDS011;20339;49.754;20.158;2022-07-23T07:24:54;4.70;;;4.30;;
34064;SDS011;20339;49.754;20.158;2022-07-23T07:27:25;5.80;;;5.30;;
34064;SDS011;20339;49.754;20.158;2022-07-23T07:29:56;5.20;;;4.30;;
34064;SDS011;20339;49.754;20.158;2022-07-23T07:32:27;5.60;;;4.10;;
34064;SDS011;20339;49.754;20.158;2022-07-23T07:35:00;5.90;;;4.50;;
34064;SDS011;20339;49.754;20.158;2022-07-23T07:37:31;5.70;;;4.60;;
34064;SDS011;20339;49.754;20.158;2022-07-23T07:40:02;4.20;;;3.80;;
34064;SDS011;20339;49.754;20.158;2022-07-23T07:42:34;4.90;;;4.50;;
34064;SDS011;20339;49.754;20.158;2022-07-23T07:45:12;5.10;;;4.50;;
34064;SDS011;20339;49.754;20.158;2022-07-23T07:47:44;4.50;;;4.20;;
34064;SDS011;20339;49.754;20.158;2022-07-23T07:50:15;4.80;;;4.40;;
34064;SDS011;20339;49.754;20.158;2022-07-23T07:52:46;5.90;;;4.60;;
34064;SDS011;20339;49.754;20.158;2022-07-23T07:55:18;4.80;;;4.20;;
34064;SDS011;20339;49.754;20.158;2022-07-23T07:57:49;5.40;;;4.50;;
34064;SDS011;20339;49.754;20.158;2022-07-23T08:00:20;4.60;;;4.20;;
34064;SDS011;20339;49.754;20.158;2022-07-23T08:02:52;4.70;;;4.30;;
34064;SDS011;20339;49.754;20.158;2022-07-23T08:05:26;5.40;;;4.80;;
34064;SDS011;20339;49.754;20.158;2022-07-23T08:07:59;6.00;;;4.90;;
34064;SDS011;20339;49.754;20.158;2022-07-23T08:10:30;6.70;;;5.30;;
34064;SDS011;20339;49.754;20.158;2022-07-23T08:13:02;5.90;;;5.40;;
34064;SDS011;20339;49.754;20.158;2022-07-23T08:15:33;5.20;;;4.70;;
34064;SDS011;20339;49.754;20.158;2022-07-23T08:18:05;5.80;;;4.80;;
34064;SDS011;20339;49.754;20.158;2022-07-23T08:20:36;6.50;;;5.10;;
34064;SDS011;20339;49.754;20.158;2022-07-23T08:23:10;7.40;;;5.30;;
34064;SDS011;20339;49.754;20.158;2022-07-23T08:25:46;7.80;;;5.50;;
34064;SDS011;20339;49.754;20.158;2022-07-23T08:28:18;6.20;;;4.70;;
34064;SDS011;20339;49.754;20.158;2022-07-23T08:30:49;5.60;;;5.10;;
34064;SDS011;20339;49.754;20.158;2022-07-23T08:33:21;5.80;;;5.20;;
34064;SDS011;20339;49.754;20.158;2022-07-23T08:35:52;6.10;;;5.40;;
34064;SDS011;20339;49.754;20.158;2022-07-23T08:38:24;5.80;;;5.30;;
34064;SDS011;20339;49.754;20.158;2022-07-23T08:40:56;5.60;;;5.10;;
34064;SDS011;20339;49.754;20.158;2022-07-23T08:43:28;6.40;;;4.90;;
34064;SDS011;20339;49.754;20.158;2022-07-23T08:46:00;5.10;;;4.70;;
34064;SDS011;20339;49.754;20.158;2022-07-23T08:48:33;4.70;;;4.40;;
34064;SDS011;20339;49.754;20.158;2022-07-23T08:51:05;4.90;;;4.50;;
34064;SDS011;20339;49.754;20.158;2022-07-23T08:53:38;4.70;;;4.30;;
34064;SDS011;20339;49.754;20.158;2022-07-23T08:56:09;4.90;;;4.50;;
34064;SDS011;20339;49.754;20.158;2022-07-23T08:58:40;5.00;;;4.00;;
34064;SDS011;20339;49.754;20.158;2022-07-23T09:01:12;5.00;;;4.60;;
34064;SDS011;20339;49.754;20.158;2022-07-23T09:03:43;4.70;;;4.30;;
34064;SDS011;20339;49.754;20.158;2022-07-23T09:06:15;4.70;;;4.30;;
34064;SDS011;20339;49.754;20.158;2022-07-23T09:08:46;6.20;;;4.60;;
34064;SDS011;20339;49.754;20.158;2022-07-23T09:11:17;5.70;;;4.30;;
34064;SDS011;20339;49.754;20.158;2022-07-23T09:13:50;5.80;;;4.60;;
34064;SDS011;20339;49.754;20.158;2022-07-23T09:16:25;6.40;;;5.00;;
34064;SDS011;20339;49.754;20.158;2022-07-23T09:19:00;5.10;;;4.70;;
34064;SDS011;20339;49.754;20.158;2022-07-23T09:21:33;5.60;;;5.10;;
34064;SDS011;20339;49.754;20.158;2022-07-23T09:24:06;5.30;;;4.80;;
34064;SDS011;20339;49.754;20.158;2022-07-23T09:26:44;6.90;;;5.40;;
34064;SDS011;20339;49.754;20.158;2022-07-23T09:29:18;6.50;;;5.60;;
34064;SDS011;20339;49.754;20.158;2022-07-23T09:31:53;5.60;;;5.10;;
34064;SDS011;20339;49.754;20.158;2022-07-23T09:34:29;5.80;;;5.20;;
34064;SDS011;20339;49.754;20.158;2022-07-23T09:37:10;6.50;;;5.90;;
34064;SDS011;20339;49.754;20.158;2022-07-23T09:39:42;5.60;;;5.10;;
34064;SDS011;20339;49.754;20.158;2022-07-23T09:42:17;7.10;;;5.70;;
34064;SDS011;20339;49.754;20.158;2022-07-23T09:44:52;6.40;;;5.80;;
34064;SDS011;20339;49.754;20.158;2022-07-23T09:47:25;10.10;;;6.40;;
34064;SDS011;20339;49.754;20.158;2022-07-23T09:50:03;7.00;;;5.60;;
34064;SDS011;20339;49.754;20.158;2022-07-23T09:52:41;6.20;;;5.60;;
34064;SDS011;20339;49.754;20.158;2022-07-23T09:55:17;6.10;;;5.50;;
34064;SDS011;20339;49.754;20.158;2022-07-23T09:57:59;6.10;;;5.60;;
34064;SDS011;20339;49.754;20.158;2022-07-23T10:00:31;6.60;;;6.00;;
34064;SDS011;20339;49.754;20.158;2022-07-23T10:03:04;6.70;;;6.00;;
34064;SDS011;20339;49.754;20.158;2022-07-23T10:05:38;6.40;;;5.80;;
34064;SDS011;20339;49.754;20.158;2022-07-23T10:08:12;9.00;;;6.20;;
34064;SDS011;20339;49.754;20.158;2022-07-23T10:10:46;7.00;;;5.50;;
34064;SDS011;20339;49.754;20.158;2022-07-23T10:13:19;6.70;;;6.10;;
34064;SDS011;20339;49.754;20.158;2022-07-23T10:16:09;7.30;;;6.10;;
34064;SDS011;20339;49.754;20.158;2022-07-23T10:18:40;8.30;;;6.30;;
34064;SDS011;20339;49.754;20.158;2022-07-23T10:21:12;7.30;;;5.70;;
34064;SDS011;20339;49.754;20.158;2022-07-23T10:24:04;8.20;;;6.40;;
34064;SDS011;20339;49.754;20.158;2022-07-23T10:26:48;6.90;;;6.30;;
34064;SDS011;20339;49.754;20.158;2022-07-23T10:29:32;6.60;;;5.80;;
34064;SDS011;20339;49.754;20.158;2022-07-23T10:32:16;7.00;;;6.30;;
34064;SDS011;20339;49.754;20.158;2022-07-23T10:34:58;7.30;;;6.60;;
34064;SDS011;20339;49.754;20.158;2022-07-23T10:37:40;9.10;;;6.30;;
34064;SDS011;20339;49.754;20.158;2022-07-23T10:40:15;7.50;;;6.80;;
34064;SDS011;20339;49.754;20.158;2022-07-23T10:42:50;7.70;;;6.90;;
34064;SDS011;20339;49.754;20.158;2022-07-23T10:45:25;7.70;;;6.90;;
34064;SDS011;20339;49.754;20.158;2022-07-23T10:48:11;7.40;;;6.70;;
34064;SDS011;20339;49.754;20.158;2022-07-23T10:50:44;7.50;;;6.50;;
34064;SDS011;20339;49.754;20.158;2022-07-23T10:53:55;7.90;;;6.70;;
34064;SDS011;20339;49.754;20.158;2022-07-23T11:02:53;6.90;;;6.30;;
34064;SDS011;20339;49.754;20.158;2022-07-23T11:05:26;8.30;;;7.50;;
34064;SDS011;20339;49.754;20.158;2022-07-23T11:08:12;8.00;;;6.20;;
34064;SDS011;20339;49.754;20.158;2022-07-23T11:10:50;6.70;;;6.10;;
34064;SDS011;20339;49.754;20.158;2022-07-23T11:13:42;8.70;;;6.60;;
34064;SDS011;20339;49.754;20.158;2022-07-23T11:16:20;7.40;;;6.70;;
34064;SDS011;20339;49.754;20.158;2022-07-23T11:18:59;8.90;;;7.30;;
34064;SDS011;20339;49.754;20.158;2022-07-23T11:24:27;7.40;;;6.60;;
34064;SDS011;20339;49.754;20.158;2022-07-23T11:27:00;8.30;;;7.50;;
34064;SDS011;20339;49.754;20.158;2022-07-23T11:29:50;8.40;;;7.50;;
34064;SDS011;20339;49.754;20.158;2022-07-23T11:32:38;7.10;;;6.40;;
34064;SDS011;20339;49.754;20.158;2022-07-23T11:35:21;10.20;;;7.10;;
34064;SDS011;20339;49.754;20.158;2022-07-23T11:38:02;9.40;;;7.70;;
34064;SDS011;20339;49.754;20.158;2022-07-23T11:40:35;9.20;;;7.70;;
34064;SDS011;20339;49.754;20.158;2022-07-23T11:43:07;7.70;;;6.90;;
34064;SDS011;20339;49.754;20.158;2022-07-23T11:45:39;8.00;;;6.70;;
34064;SDS011;20339;49.754;20.158;2022-07-23T11:48:17;9.60;;;8.20;;
34064;SDS011;20339;49.754;20.158;2022-07-23T11:50:49;9.00;;;7.00;;
34064;SDS011;20339;49.754;20.158;2022-07-23T11:53:25;8.80;;;7.20;;
34064;SDS011;20339;49.754;20.158;2022-07-23T11:56:04;8.30;;;7.30;;
34064;SDS011;20339;49.754;20.158;2022-07-23T11:58:38;7.90;;;7.10;;
34064;SDS011;20339;49.754;20.158;2022-07-23T12:01:23;8.30;;;7.50;;
34064;SDS011;20339;49.754;20.158;2022-07-23T12:03:54;8.20;;;7.40;;
34064;SDS011;20339;49.754;20.158;2022-07-23T12:06:28;8.10;;;7.30;;
34064;SDS011;20339;49.754;20.158;2022-07-23T12:09:06;7.30;;;6.70;;
34064;SDS011;20339;49.754;20.158;2022-07-23T12:11:39;8.00;;;6.80;;
34064;SDS011;20339;49.754;20.158;2022-07-23T12:14:28;8.60;;;7.80;;
34064;SDS011;20339;49.754;20.158;2022-07-23T12:17:08;7.90;;;7.10;;
34064;SDS011;20339;49.754;20.158;2022-07-23T12:19:41;7.80;;;7.00;;
34064;SDS011;20339;49.754;20.158;2022-07-23T12:22:13;10.50;;;7.50;;
34064;SDS011;20339;49.754;20.158;2022-07-23T12:24:54;8.20;;;7.40;;
34064;SDS011;20339;49.754;20.158;2022-07-23T12:27:27;9.40;;;7.70;;
34064;SDS011;20339;49.754;20.158;2022-07-23T12:30:00;8.60;;;7.20;;
34064;SDS011;20339;49.754;20.158;2022-07-23T12:32:50;13.00;;;7.70;;
34064;SDS011;20339;49.754;20.158;2022-07-23T12:35:29;8.40;;;7.50;;
34064;SDS011;20339;49.754;20.158;2022-07-23T12:38:07;8.60;;;7.50;;
34064;SDS011;20339;49.754;20.158;2022-07-23T12:40:44;7.90;;;7.10;;
34064;SDS011;20339;49.754;20.158;2022-07-23T12:43:20;8.40;;;7.50;;
34064;SDS011;20339;49.754;20.158;2022-07-23T12:45:54;9.30;;;7.60;;
34064;SDS011;20339;49.754;20.158;2022-07-23T12:48:31;8.90;;;7.50;;
34064;SDS011;20339;49.754;20.158;2022-07-23T12:51:05;7.90;;;6.90;;
34064;SDS011;20339;49.754;20.158;2022-07-23T12:56:37;7.90;;;7.10;;
34064;SDS011;20339;49.754;20.158;2022-07-23T12:59:18;8.20;;;7.40;;
34064;SDS011;20339;49.754;20.158;2022-07-23T13:01:59;8.50;;;7.50;;
34064;SDS011;20339;49.754;20.158;2022-07-23T13:04:33;8.20;;;7.30;;
34064;SDS011;20339;49.754;20.158;2022-07-23T13:07:04;8.20;;;7.40;;
34064;SDS011;20339;49.754;20.158;2022-07-23T13:09:36;8.10;;;7.30;;
34064;SDS011;20339;49.754;20.158;2022-07-23T13:12:09;10.00;;;7.20;;
34064;SDS011;20339;49.754;20.158;2022-07-23T13:14:41;8.00;;;7.10;;
34064;SDS011;20339;49.754;20.158;2022-07-23T13:17:15;7.60;;;6.90;;
34064;SDS011;20339;49.754;20.158;2022-07-23T13:19:51;11.70;;;8.20;;
34064;SDS011;20339;49.754;20.158;2022-07-23T13:22:23;7.70;;;6.90;;
34064;SDS011;20339;49.754;20.158;2022-07-23T13:24:55;9.10;;;7.10;;
34064;SDS011;20339;49.754;20.158;2022-07-23T13:27:32;8.60;;;7.00;;
34064;SDS011;20339;49.754;20.158;2022-07-23T13:30:11;7.90;;;7.20;;
34064;SDS011;20339;49.754;20.158;2022-07-23T13:32:45;7.90;;;7.00;;
34064;SDS011;20339;49.754;20.158;2022-07-23T13:35:18;8.50;;;6.90;;
34064;SDS011;20339;49.754;20.158;2022-07-23T13:37:50;7.90;;;7.20;;
34064;SDS011;20339;49.754;20.158;2022-07-23T13:40:21;7.40;;;6.60;;
34064;SDS011;20339;49.754;20.158;2022-07-23T13:42:52;7.40;;;6.70;;
34064;SDS011;20339;49.754;20.158;2022-07-23T13:45:24;8.50;;;7.60;;
34064;SDS011;20339;49.754;20.158;2022-07-23T13:48:02;8.30;;;7.30;;
34064;SDS011;20339;49.754;20.158;2022-07-23T13:50:45;7.80;;;7.10;;
34064;SDS011;20339;49.754;20.158;2022-07-23T13:53:22;8.10;;;7.30;;
34064;SDS011;20339;49.754;20.158;2022-07-23T13:55:56;8.80;;;7.10;;
34064;SDS011;20339;49.754;20.158;2022-07-23T13:58:28;8.80;;;7.60;;
34064;SDS011;20339;49.754;20.158;2022-07-23T14:01:03;9.00;;;7.70;;
34064;SDS011;20339;49.754;20.158;2022-07-23T14:03:34;9.20;;;6.90;;
34064;SDS011;20339;49.754;20.158;2022-07-23T14:06:06;9.40;;;7.20;;
34064;SDS011;20339;49.754;20.158;2022-07-23T14:08:39;8.90;;;7.50;;
34064;SDS011;20339;49.754;20.158;2022-07-23T14:11:14;8.90;;;8.00;;
34064;SDS011;20339;49.754;20.158;2022-07-23T14:13:48;9.70;;;7.80;;
34064;SDS011;20339;49.754;20.158;2022-07-23T14:16:20;8.80;;;8.00;;
34064;SDS011;20339;49.754;20.158;2022-07-23T14:18:59;8.40;;;7.60;;
34064;SDS011;20339;49.754;20.158;2022-07-23T14:21:33;8.60;;;7.70;;
34064;SDS011;20339;49.754;20.158;2022-07-23T14:24:07;9.60;;;8.00;;
34064;SDS011;20339;49.754;20.158;2022-07-23T14:26:39;8.00;;;7.30;;
34064;SDS011;20339;49.754;20.158;2022-07-23T14:29:11;8.60;;;7.80;;
34064;SDS011;20339;49.754;20.158;2022-07-23T14:31:47;8.80;;;8.00;;
34064;SDS011;20339;49.754;20.158;2022-07-23T14:34:21;8.20;;;7.40;;
34064;SDS011;20339;49.754;20.158;2022-07-23T14:36:54;9.80;;;7.80;;
34064;SDS011;20339;49.754;20.158;2022-07-23T14:39:27;8.90;;;8.00;;
34064;SDS011;20339;49.754;20.158;2022-07-23T14:41:59;8.30;;;7.60;;
34064;SDS011;20339;49.754;20.158;2022-07-23T14:44:31;11.20;;;7.90;;
34064;SDS011;20339;49.754;20.158;2022-07-23T14:47:08;10.80;;;8.50;;
34064;SDS011;20339;49.754;20.158;2022-07-23T14:49:41;12.30;;;7.80;;
34064;SDS011;20339;49.754;20.158;2022-07-23T14:52:18;14.40;;;8.60;;
34064;SDS011;20339;49.754;20.158;2022-07-23T14:54:58;10.60;;;9.20;;
34064;SDS011;20339;49.754;20.158;2022-07-23T14:57:37;8.60;;;7.70;;
34064;SDS011;20339;49.754;20.158;2022-07-23T15:00:12;8.80;;;7.50;;
34064;SDS011;20339;49.754;20.158;2022-07-23T15:02:48;10.40;;;8.00;;
34064;SDS011;20339;49.754;20.158;2022-07-23T15:05:20;10.70;;;8.30;;
34064;SDS011;20339;49.754;20.158;2022-07-23T15:07:57;11.50;;;8.70;;
34064;SDS011;20339;49.754;20.158;2022-07-23T15:10:35;11.90;;;9.30;;
34064;SDS011;20339;49.754;20.158;2022-07-23T15:13:07;10.70;;;8.90;;
34064;SDS011;20339;49.754;20.158;2022-07-23T15:15:43;9.50;;;8.00;;
34064;SDS011;20339;49.754;20.158;2022-07-23T15:18:15;9.70;;;8.50;;
34064;SDS011;20339;49.754;20.158;2022-07-23T15:20:52;7.00;;;6.30;;
34064;SDS011;20339;49.754;20.158;2022-07-23T15:23:30;10.00;;;9.00;;
34064;SDS011;20339;49.754;20.158;2022-07-23T15:26:08;10.90;;;9.20;;